createdAt,value
2022-10-19T00:01:21.277Z,87.92
2022-10-19T00:03:51.802Z,88.90
2022-10-19T00:06:26.278Z,88.67
2022-10-19T00:09:05.205Z,88.67
2022-10-19T00:11:33.614Z,88.93
2022-10-19T00:14:04.366Z,89.33
2022-10-19T00:16:36.526Z,89.25
2022-10-19T00:19:08.337Z,89.63
2022-10-19T00:21:36.646Z,89.01
2022-10-19T00:24:04.365Z,88.95
2022-10-19T00:26:32.077Z,89.05
2022-10-19T00:28:59.806Z,89.41
2022-10-19T00:31:27.785Z,89.54
2022-10-19T00:33:57.970Z,90.01
2022-10-19T00:36:26.656Z,90.25
2022-10-19T00:38:57.967Z,90.09
2022-10-19T00:41:30.624Z,89.97
2022-10-19T00:44:01.934Z,90.01
2022-10-19T00:46:31.916Z,90.48
2022-10-19T00:49:09.992Z,89.88
2022-10-19T00:51:43.965Z,89.99
2022-10-19T00:54:15.339Z,90.82
2022-10-19T00:56:45.369Z,90.60
2022-10-19T00:59:16.112Z,90.27
2022-10-19T01:01:46.030Z,90.09
2022-10-19T01:04:14.838Z,89.97
2022-10-19T01:06:43.245Z,89.96
2022-10-19T01:09:10.905Z,89.60
2022-10-19T01:11:53.437Z,89.69
2022-10-19T01:14:42.801Z,90.07
2022-10-19T01:17:28.982Z,89.92
2022-10-19T01:20:38.448Z,89.94
2022-10-19T01:23:31.622Z,90.04
2022-10-19T01:26:20.418Z,89.78
2022-10-19T01:29:00.084Z,89.66
2022-10-19T01:32:01.308Z,88.98
2022-10-19T01:34:53.542Z,89.13
2022-10-19T01:37:39.433Z,89.44
2022-10-19T01:40:34.036Z,89.48
2022-10-19T01:43:27.273Z,89.15
2022-10-19T01:46:27.472Z,89.38
2022-10-19T01:49:04.459Z,89.33
2022-10-19T01:51:36.739Z,89.67
2022-10-19T01:54:07.881Z,90.23
2022-10-19T01:56:38.978Z,89.95
2022-10-19T01:59:10.391Z,90.21
2022-10-19T02:01:42.518Z,90.19
2022-10-19T02:04:17.080Z,90.10
2022-10-19T02:06:47.949Z,90.08
2022-10-19T02:09:18.213Z,89.99
2022-10-19T02:12:00.094Z,90.08
2022-10-19T02:14:35.889Z,90.39
2022-10-19T02:17:09.111Z,90.64
2022-10-19T02:19:39.376Z,90.48
2022-10-19T02:22:09.938Z,90.66
2022-10-19T02:24:37.425Z,90.51
2022-10-19T02:27:06.197Z,90.21
2022-10-19T02:29:35.533Z,89.72
2022-10-19T02:32:03.714Z,90.26
2022-10-19T02:34:31.458Z,90.22
2022-10-19T02:36:59.402Z,90.24
2022-10-19T02:39:26.929Z,89.95
2022-10-19T02:42:04.830Z,90.46
2022-10-19T02:45:00.353Z,89.87
2022-10-19T02:47:45.594Z,90.05
2022-10-19T02:50:13.408Z,90.12
2022-10-19T02:52:42.238Z,89.94
2022-10-19T02:55:13.525Z,89.77
2022-10-19T02:57:41.024Z,89.80
2022-10-19T03:00:10.474Z,89.78
2022-10-19T03:02:38.033Z,90.00
2022-10-19T03:05:06.133Z,90.25
2022-10-19T03:07:36.842Z,90.43
2022-10-19T03:10:04.733Z,90.26
2022-10-19T03:12:32.224Z,90.60
2022-10-19T03:15:02.214Z,90.18
2022-10-19T03:17:32.272Z,90.06
2022-10-19T03:20:00.066Z,89.50
2022-10-19T03:22:27.651Z,89.42
2022-10-19T03:24:57.518Z,89.26
2022-10-19T03:27:24.977Z,88.96
2022-10-19T03:29:52.478Z,89.15
2022-10-19T03:32:22.609Z,89.17
2022-10-19T03:34:50.092Z,89.38
2022-10-19T03:37:17.713Z,89.25
2022-10-19T03:39:45.195Z,89.40
2022-10-19T03:42:12.695Z,88.56
2022-10-19T03:44:40.172Z,88.54
2022-10-19T03:47:07.650Z,88.69
2022-10-19T03:49:38.050Z,88.03
2022-10-19T03:52:09.997Z,87.50
2022-10-19T03:54:37.509Z,86.89
2022-10-19T03:57:05.003Z,86.33
2022-10-19T03:59:34.627Z,84.82
2022-10-19T04:02:02.215Z,84.40
2022-10-19T04:04:29.741Z,83.47
2022-10-19T04:06:57.219Z,82.47
2022-10-19T04:09:24.887Z,82.05
2022-10-19T04:11:52.392Z,81.92
2022-10-19T04:14:32.024Z,81.56
2022-10-19T04:17:02.307Z,81.41
2022-10-19T04:19:29.943Z,80.67
2022-10-19T04:21:59.763Z,80.62
2022-10-19T04:24:29.529Z,80.25
2022-10-19T04:26:57.821Z,80.54
2022-10-19T04:29:29.746Z,80.73
2022-10-19T04:32:00.455Z,81.06
2022-10-19T04:34:34.218Z,81.67
2022-10-19T04:37:03.955Z,81.26
2022-10-19T04:39:32.468Z,81.02
2022-10-19T04:41:59.943Z,81.42
2022-10-19T04:44:27.445Z,82.15
2022-10-19T04:46:55.145Z,82.66
2022-10-19T04:49:24.833Z,82.99
2022-10-19T04:51:52.441Z,83.08
2022-10-19T04:54:23.365Z,83.27
2022-10-19T04:56:51.089Z,83.31
2022-10-19T04:59:21.097Z,83.09
2022-10-19T05:01:48.615Z,83.49
2022-10-19T05:04:16.256Z,83.35
2022-10-19T05:06:43.804Z,83.31
2022-10-19T05:09:13.702Z,83.31
2022-10-19T05:11:46.090Z,83.19
2022-10-19T05:14:13.587Z,83.14
2022-10-19T05:16:41.119Z,83.75
2022-10-19T05:19:08.598Z,83.93
2022-10-19T05:21:36.085Z,84.54
2022-10-19T05:24:03.909Z,85.09
2022-10-19T05:26:31.411Z,84.28
2022-10-19T05:29:04.358Z,84.55
2022-10-19T05:31:36.371Z,84.73
2022-10-19T05:34:04.979Z,85.25
2022-10-19T05:36:38.178Z,84.77
2022-10-19T05:39:13.881Z,84.18
2022-10-19T05:41:44.337Z,83.85
2022-10-19T05:44:16.542Z,82.94
2022-10-19T05:46:44.485Z,82.04
2022-10-19T05:49:13.415Z,81.80
2022-10-19T05:51:45.697Z,81.35
2022-10-19T05:54:14.416Z,80.64
2022-10-19T05:56:42.753Z,80.60
2022-10-19T05:59:14.820Z,80.62
2022-10-19T06:01:42.609Z,80.51
2022-10-19T06:04:10.938Z,80.42
2022-10-19T06:06:38.475Z,80.25
2022-10-19T06:09:06.185Z,80.12
2022-10-19T06:11:36.608Z,79.81
2022-10-19T06:14:08.237Z,79.75
2022-10-19T06:16:36.290Z,79.54
2022-10-19T06:19:04.762Z,79.51
2022-10-19T06:21:34.537Z,79.54
2022-10-19T06:24:05.767Z,79.24
2022-10-19T06:26:35.224Z,78.71
2022-10-19T06:29:03.754Z,78.64
2022-10-19T06:31:34.130Z,78.09
2022-10-19T06:34:02.123Z,78.08
2022-10-19T06:36:32.341Z,77.80
2022-10-19T06:39:01.951Z,77.96
2022-10-19T06:41:32.328Z,77.57
2022-10-19T06:44:02.367Z,76.92
2022-10-19T06:46:29.929Z,76.40
2022-10-19T06:48:59.302Z,76.34
2022-10-19T06:51:34.024Z,75.82
2022-10-19T06:54:04.210Z,75.11
2022-10-19T06:56:31.726Z,74.76
2022-10-19T06:59:02.153Z,74.10
2022-10-19T07:01:29.830Z,73.91
2022-10-19T07:03:57.374Z,73.82
2022-10-19T07:06:24.996Z,72.98
2022-10-19T07:08:53.292Z,72.82
2022-10-19T07:11:23.688Z,72.75
2022-10-19T07:13:53.257Z,71.87
2022-10-19T07:16:21.859Z,72.14
2022-10-19T07:18:51.788Z,71.85
2022-10-19T07:21:20.464Z,69.91
2022-10-19T07:23:49.188Z,65.09
2022-10-19T07:26:30.457Z,60.51
2022-10-19T07:28:58.947Z,56.55
2022-10-19T07:31:28.915Z,53.85
2022-10-19T07:34:04.743Z,51.68
2022-10-19T07:36:34.521Z,49.76
2022-10-19T07:39:05.345Z,49.58
2022-10-19T07:41:34.649Z,46.03
2022-10-19T07:44:02.664Z,47.92
2022-10-19T07:46:33.873Z,46.57
2022-10-19T07:49:05.642Z,44.07
2022-10-19T07:51:33.150Z,43.87
2022-10-19T07:54:00.844Z,42.96
2022-10-19T07:56:29.288Z,41.04
2022-10-19T07:58:58.490Z,42.25
2022-10-19T08:01:28.867Z,40.52
2022-10-19T08:06:48.119Z,39.24
2022-10-19T08:09:47.405Z,38.91
2022-10-19T08:12:07.040Z,37.85
2022-10-19T08:14:34.881Z,37.58
2022-10-19T08:17:04.748Z,36.77
2022-10-19T08:19:32.290Z,36.55
2022-10-19T08:21:59.751Z,36.89
2022-10-19T08:24:27.314Z,36.32
2022-10-19T08:26:54.791Z,35.16
2022-10-19T08:29:26.626Z,35.17
2022-10-19T08:31:58.730Z,34.85
2022-10-19T08:34:26.344Z,35.09
2022-10-19T08:36:53.880Z,36.25
2022-10-19T08:39:21.390Z,35.92
2022-10-19T08:42:18.004Z,36.56
2022-10-19T08:45:01.713Z,36.60
2022-10-19T08:47:38.870Z,35.41
2022-10-19T08:50:39.336Z,34.84
2022-10-19T08:53:13.676Z,34.55
2022-10-19T08:55:55.431Z,35.03
2022-10-19T08:58:38.120Z,35.85
2022-10-19T09:01:33.925Z,37.08
2022-10-19T09:04:27.064Z,36.58
2022-10-19T09:07:20.876Z,35.67
2022-10-19T09:10:04.676Z,35.51
2022-10-19T09:12:49.045Z,35.80
2022-10-19T09:15:21.518Z,35.29
2022-10-19T09:17:49.080Z,35.62
2022-10-19T09:20:27.619Z,35.90
2022-10-19T09:23:41.656Z,37.49
2022-10-19T09:26:17.636Z,37.25
2022-10-19T09:28:58.369Z,36.26
2022-10-19T09:31:34.943Z,35.71
2022-10-19T09:34:19.135Z,35.20
2022-10-19T09:36:52.605Z,35.11
2022-10-19T09:39:25.690Z,36.61
2022-10-19T09:42:06.487Z,35.29
2022-10-19T09:44:34.133Z,38.96
2022-10-19T09:47:16.784Z,40.39
2022-10-19T09:49:49.727Z,42.15
2022-10-19T09:52:32.186Z,42.47
2022-10-19T09:55:14.917Z,43.73
2022-10-19T09:58:00.058Z,44.60
2022-10-19T10:00:35.343Z,43.10
2022-10-19T10:03:03.335Z,40.10
2022-10-19T10:05:38.903Z,41.39
2022-10-19T10:08:18.672Z,39.04
2022-10-19T10:10:49.324Z,39.89
2022-10-19T10:13:22.790Z,41.87
2022-10-19T10:15:59.827Z,42.18
2022-10-19T10:18:30.290Z,43.92
2022-10-19T10:21:25.399Z,46.74
2022-10-19T10:24:01.690Z,46.74
2022-10-19T10:26:29.642Z,42.05
2022-10-19T10:29:00.636Z,45.32
2022-10-19T10:31:30.932Z,45.45
2022-10-19T10:34:12.153Z,46.11
2022-10-19T10:36:54.882Z,45.15
2022-10-19T10:39:24.820Z,41.74
2022-10-19T10:41:52.647Z,38.82
2022-10-19T10:44:30.866Z,36.25
2022-10-19T10:47:01.007Z,36.23
2022-10-19T10:49:37.408Z,34.80
2022-10-19T10:52:18.226Z,34.54
2022-10-19T10:55:16.528Z,33.72
2022-10-19T10:57:54.930Z,33.65
2022-10-19T11:00:25.034Z,33.12
2022-10-19T11:03:06.348Z,33.06
2022-10-19T11:05:59.719Z,32.25
2022-10-19T11:09:11.330Z,31.81
2022-10-19T11:11:46.996Z,31.79
2022-10-19T11:14:20.563Z,30.53
2022-10-19T11:16:51.395Z,31.68
2022-10-19T11:19:22.366Z,30.99
2022-10-19T11:22:21.258Z,30.45
2022-10-19T11:25:15.321Z,30.13
2022-10-19T11:28:13.699Z,30.76
2022-10-19T11:30:51.246Z,30.66
2022-10-19T11:33:48.116Z,31.17
2022-10-19T11:36:57.261Z,30.94
2022-10-19T11:39:30.845Z,31.25
2022-10-19T11:42:07.417Z,31.83
2022-10-19T11:45:04.099Z,32.16
2022-10-19T11:47:43.238Z,32.36
2022-10-19T11:50:46.603Z,31.96
2022-10-19T11:53:45.736Z,32.38
2022-10-19T11:56:44.740Z,32.86
2022-10-19T11:59:41.890Z,33.21
2022-10-19T12:02:40.564Z,32.38
2022-10-19T12:05:24.734Z,33.01
2022-10-19T12:08:16.252Z,32.79
2022-10-19T12:10:56.597Z,33.95
2022-10-19T12:13:41.693Z,33.30
2022-10-19T12:16:12.535Z,32.83
2022-10-19T12:18:47.224Z,33.07
2022-10-19T12:21:30.089Z,33.19
2022-10-19T12:24:03.234Z,33.42
2022-10-19T12:26:37.438Z,33.92
2022-10-19T12:29:11.367Z,33.87
2022-10-19T12:31:39.230Z,34.01
2022-10-19T12:34:37.926Z,33.11
2022-10-19T12:37:30.555Z,33.53
2022-10-19T12:40:00.799Z,32.76
2022-10-19T12:42:52.797Z,33.88
2022-10-19T12:45:25.360Z,33.17
2022-10-19T12:48:18.870Z,33.49
2022-10-19T12:50:49.173Z,33.31
2022-10-19T12:53:38.130Z,34.07
2022-10-19T12:56:18.332Z,33.92
2022-10-19T12:58:47.838Z,33.55
2022-10-19T13:01:23.393Z,34.19
2022-10-19T13:04:21.885Z,34.50
2022-10-19T13:06:54.555Z,34.61
2022-10-19T13:09:31.379Z,34.85
2022-10-19T13:12:17.658Z,34.69
2022-10-19T13:15:03.709Z,35.01
2022-10-19T13:17:37.209Z,35.31
2022-10-19T13:20:16.799Z,36.73
2022-10-19T13:22:52.309Z,37.26
2022-10-19T13:25:20.472Z,37.33
2022-10-19T13:27:49.630Z,38.08
2022-10-19T13:30:39.088Z,38.45
2022-10-19T13:33:25.382Z,39.14
2022-10-19T13:36:02.561Z,39.82
2022-10-19T13:38:37.167Z,39.80
2022-10-19T13:41:14.219Z,40.68
2022-10-19T13:44:14.485Z,41.51
2022-10-19T13:47:09.989Z,42.04
2022-10-19T13:50:03.490Z,42.71
2022-10-19T13:52:55.138Z,43.15
2022-10-19T13:55:31.313Z,43.55
2022-10-19T13:58:14.167Z,43.45
2022-10-19T14:01:14.347Z,44.07
2022-10-19T14:04:39.328Z,45.03
2022-10-19T14:07:15.155Z,44.38
2022-10-19T14:09:55.558Z,45.29
2022-10-19T14:12:28.310Z,45.67
2022-10-19T14:14:56.044Z,46.52
2022-10-19T14:17:27.960Z,47.73
2022-10-19T14:19:59.158Z,46.74
2022-10-19T14:22:36.918Z,47.60
2022-10-19T14:25:27.915Z,47.34
2022-10-19T14:28:03.046Z,47.81
2022-10-19T14:30:35.958Z,48.26
2022-10-19T14:33:14.446Z,48.27
2022-10-19T14:35:46.913Z,48.47
2022-10-19T14:38:43.372Z,48.72
2022-10-19T14:41:29.398Z,48.18
2022-10-19T14:43:57.794Z,48.05
2022-10-19T14:46:33.769Z,47.99
2022-10-19T14:49:12.762Z,48.09
2022-10-19T14:51:52.740Z,48.18
2022-10-19T14:54:29.522Z,48.74
2022-10-19T14:57:05.289Z,48.78
2022-10-19T14:59:46.417Z,49.12
2022-10-19T15:02:23.004Z,49.20
2022-10-19T15:04:51.791Z,49.26
2022-10-19T15:07:27.701Z,49.51
2022-10-19T15:10:02.032Z,50.24
2022-10-19T15:12:36.421Z,50.51
2022-10-19T15:15:15.387Z,50.47
2022-10-19T15:18:01.387Z,51.13
2022-10-19T15:20:44.286Z,51.71
2022-10-19T15:23:47.296Z,51.24
2022-10-19T15:26:17.863Z,51.72
2022-10-19T15:28:45.714Z,51.84
2022-10-19T15:31:19.837Z,52.01
2022-10-19T15:33:53.309Z,52.55
2022-10-19T15:36:22.499Z,52.50
2022-10-19T15:39:11.366Z,52.73
2022-10-19T15:41:46.641Z,53.37
2022-10-19T15:44:41.869Z,54.29
2022-10-19T15:47:19.395Z,54.32
2022-10-19T15:49:46.974Z,54.44
2022-10-19T15:52:21.406Z,55.00
2022-10-19T15:54:50.273Z,55.45
2022-10-19T15:57:28.743Z,55.14
2022-10-19T15:59:58.149Z,55.10
2022-10-19T16:02:26.114Z,55.65
2022-10-19T16:04:55.339Z,55.24
2022-10-19T16:07:28.843Z,55.50
2022-10-19T16:09:59.163Z,56.13
2022-10-19T16:12:29.662Z,57.35
2022-10-19T16:14:57.366Z,56.64
2022-10-19T16:17:27.543Z,56.88
2022-10-19T16:19:55.191Z,56.41
2022-10-19T16:22:22.693Z,56.17
2022-10-19T16:24:50.205Z,56.16
2022-10-19T16:27:17.711Z,55.70
2022-10-19T16:29:45.666Z,55.53
2022-10-19T16:32:16.822Z,55.20
2022-10-19T16:34:44.284Z,55.19
2022-10-19T16:37:11.934Z,55.02
2022-10-19T16:39:39.560Z,54.78
2022-10-19T16:42:07.090Z,54.60
2022-10-19T16:44:34.572Z,54.47
2022-10-19T16:47:02.115Z,54.33
2022-10-19T16:49:32.387Z,54.34
2022-10-19T16:52:01.695Z,54.39
2022-10-19T16:54:30.505Z,54.78
2022-10-19T16:56:58.939Z,54.86
2022-10-19T16:59:26.457Z,54.75
2022-10-19T17:01:54.184Z,55.00
2022-10-19T17:04:26.016Z,54.92
2022-10-19T17:06:53.493Z,54.99
2022-10-19T17:09:40.768Z,54.92
2022-10-19T17:12:08.995Z,55.02
2022-10-19T17:14:37.363Z,55.18
2022-10-19T17:17:04.942Z,55.24
2022-10-19T17:19:32.711Z,55.37
2022-10-19T17:22:05.696Z,55.20
2022-10-19T17:24:33.499Z,55.24
2022-10-19T17:27:03.127Z,55.42
2022-10-19T17:29:31.169Z,55.51
2022-10-19T17:32:01.568Z,55.73
2022-10-19T17:34:29.117Z,56.19
2022-10-19T17:36:56.758Z,56.33
2022-10-19T17:39:29.128Z,56.31
2022-10-19T17:42:02.458Z,56.62
2022-10-19T17:44:32.531Z,56.74
2022-10-19T17:47:01.425Z,56.81
2022-10-19T17:49:29.792Z,57.32
2022-10-19T17:51:57.488Z,57.56
2022-10-19T17:54:25.734Z,57.64
2022-10-19T17:56:53.226Z,58.12
2022-10-19T17:59:30.265Z,58.25
2022-10-19T18:02:03.385Z,58.59
2022-10-19T18:04:30.934Z,58.79
2022-10-19T18:06:58.623Z,58.65
2022-10-19T18:09:26.121Z,58.92
2022-10-19T18:11:53.614Z,59.00
2022-10-19T18:14:21.097Z,59.50
2022-10-19T18:16:48.862Z,59.83
2022-10-19T18:19:18.947Z,59.88
2022-10-19T18:21:47.783Z,60.31
2022-10-19T18:24:21.314Z,61.57
2022-10-19T18:26:54.197Z,60.93
2022-10-19T18:29:24.121Z,60.94
2022-10-19T18:31:52.608Z,61.31
2022-10-19T18:34:26.227Z,61.88
2022-10-19T18:36:55.051Z,62.20
2022-10-19T18:39:22.934Z,61.76
2022-10-19T18:41:56.377Z,61.81
2022-10-19T18:44:27.114Z,62.37
2022-10-19T18:46:56.383Z,63.09
2022-10-19T18:49:24.048Z,62.80
2022-10-19T18:51:55.096Z,62.88
2022-10-19T18:54:23.717Z,63.48
2022-10-19T18:56:51.221Z,63.25
2022-10-19T18:59:19.057Z,63.25
2022-10-19T19:01:46.730Z,63.33
2022-10-19T19:04:15.027Z,63.52
2022-10-19T19:06:42.668Z,63.33
2022-10-19T19:09:14.592Z,63.57
2022-10-19T19:11:42.198Z,63.90
2022-10-19T19:14:20.951Z,63.93
2022-10-19T19:16:48.537Z,65.01
2022-10-19T19:19:17.956Z,65.15
2022-10-19T19:21:46.286Z,65.59
2022-10-19T19:24:21.850Z,65.92
2022-10-19T19:26:54.775Z,66.00
2022-10-19T19:29:23.030Z,66.13
2022-10-19T19:31:51.390Z,66.37
2022-10-19T19:34:20.677Z,65.97
2022-10-19T19:36:48.853Z,65.49
2022-10-19T19:39:18.715Z,65.83
2022-10-19T19:41:46.369Z,65.52
2022-10-19T19:44:13.898Z,65.51
2022-10-19T19:46:41.380Z,64.99
2022-10-19T19:49:11.538Z,64.91
2022-10-19T19:51:41.365Z,64.76
2022-10-19T19:54:08.880Z,64.99
2022-10-19T19:56:37.324Z,65.03
2022-10-19T19:59:04.863Z,65.63
2022-10-19T20:01:36.593Z,65.67
2022-10-19T20:04:05.421Z,65.54
2022-10-19T20:06:35.453Z,66.01
2022-10-19T20:09:03.025Z,65.36
2022-10-19T20:11:31.254Z,65.09
2022-10-19T20:13:58.787Z,65.46
2022-10-19T20:16:29.437Z,65.65
2022-10-19T20:19:14.603Z,65.80
2022-10-19T20:21:42.716Z,65.63
2022-10-19T20:24:10.945Z,65.55
2022-10-19T20:26:38.501Z,65.74
2022-10-19T20:29:08.125Z,65.92
2022-10-19T20:31:39.539Z,65.99
2022-10-19T20:34:13.675Z,65.93
2022-10-19T20:36:41.331Z,66.62
2022-10-19T20:39:08.928Z,66.92
2022-10-19T20:41:36.817Z,66.57
2022-10-19T20:44:05.528Z,66.72
2022-10-19T20:46:37.110Z,66.04
2022-10-19T20:49:05.187Z,65.90
2022-10-19T20:51:36.503Z,65.18
2022-10-19T20:54:05.584Z,64.51
2022-10-19T20:56:36.443Z,64.28
2022-10-19T20:59:07.918Z,63.43
2022-10-19T21:01:37.938Z,63.09
2022-10-19T21:04:10.076Z,62.72
2022-10-19T21:06:46.227Z,62.36
2022-10-19T21:09:16.306Z,62.36
2022-10-19T21:11:45.624Z,62.23
2022-10-19T21:14:20.272Z,62.18
2022-10-19T21:16:50.103Z,62.08
2022-10-19T21:19:20.202Z,62.13
2022-10-19T21:21:50.780Z,61.72
2022-10-19T21:24:24.505Z,61.95
2022-10-19T21:29:28.225Z,62.42
2022-10-19T21:31:56.168Z,62.60
2022-10-19T21:34:26.174Z,62.66
2022-10-19T21:36:54.617Z,62.69
2022-10-19T21:39:26.466Z,62.82
2022-10-19T21:41:54.020Z,62.81
2022-10-19T21:44:23.265Z,62.88
2022-10-19T21:46:53.264Z,62.70
2022-10-19T21:49:20.952Z,62.74
2022-10-19T21:51:55.713Z,62.98
2022-10-19T21:54:27.243Z,63.24
2022-10-19T21:56:55.774Z,63.35
2022-10-19T21:59:23.486Z,63.36
2022-10-19T22:01:51.015Z,63.41
2022-10-19T22:04:19.329Z,63.25
2022-10-19T22:06:47.639Z,63.09
2022-10-19T22:09:20.408Z,62.96
2022-10-19T22:11:48.297Z,63.00
2022-10-19T22:14:17.759Z,63.03
2022-10-19T22:16:47.670Z,63.14
2022-10-19T22:19:15.466Z,63.23
2022-10-19T22:21:42.974Z,63.09
2022-10-19T22:24:16.320Z,63.04
2022-10-19T22:26:46.853Z,63.07
2022-10-19T22:29:17.650Z,62.95
2022-10-19T22:31:45.690Z,62.98
2022-10-19T22:34:16.163Z,63.06
2022-10-19T22:36:44.564Z,63.12
2022-10-19T22:39:12.655Z,63.16
2022-10-19T22:42:35.611Z,63.65
2022-10-19T22:45:03.331Z,63.92
2022-10-19T22:47:33.362Z,63.95
2022-10-19T22:50:00.947Z,64.33
2022-10-19T22:52:28.503Z,64.72
2022-10-19T22:54:56.082Z,65.16
2022-10-19T22:57:25.990Z,65.37
2022-10-19T22:59:53.546Z,65.39
2022-10-19T23:02:21.106Z,65.85
2022-10-19T23:04:48.675Z,65.98
2022-10-19T23:07:16.584Z,66.23
2022-10-19T23:09:46.380Z,66.89
2022-10-19T23:12:13.950Z,66.78
2022-10-19T23:14:41.549Z,68.18
2022-10-19T23:17:09.077Z,68.58
2022-10-19T23:19:36.630Z,69.71
2022-10-19T23:22:04.111Z,69.69
2022-10-19T23:24:31.658Z,70.06
2022-10-19T23:26:59.197Z,70.85
2022-10-19T23:29:28.984Z,71.50
2022-10-19T23:31:56.547Z,71.94
2022-10-19T23:34:24.160Z,72.20
2022-10-19T23:36:53.156Z,73.10
2022-10-19T23:39:21.818Z,73.02
2022-10-19T23:41:49.451Z,72.93
2022-10-19T23:44:18.069Z,74.05
2022-10-19T23:46:47.943Z,74.41
2022-10-19T23:49:17.939Z,75.34
2022-10-19T23:51:45.419Z,75.03
2022-10-19T23:54:14.190Z,76.32
2022-10-19T23:56:44.057Z,75.89
2022-10-19T23:59:11.783Z,75.89
